MDT,Max TemperatureF,Mean TemperatureF,Min TemperatureF,Max Dew PointF,MeanDew PointF,Min DewpointF,Max Humidity, Mean Humidity, Min Humidity, Max Sea Level PressureIn, Mean Sea Level PressureIn, Min Sea Level PressureIn, Max VisibilityMiles, Mean VisibilityMiles, Min VisibilityMiles, Max Wind SpeedMPH, Mean Wind SpeedMPH, Max Gust SpeedMPH,PrecipitationIn, CloudCover, Events, WindDirDegrees
2013-5-1,66,52,37,23,8,-10,33,20,7,30.16,29.87,29.62,10,10,10,30,13,38,0.00,0,,277
2013-5-2,59,42,24,8,2,-5,37,23,9,30.44,30.34,30.20,10,10,10,20,7,26,0.00,0,,292
2013-5-3,65,44,22,11,7,2,46,28,10,30.34,30.15,29.95,10,10,10,13,6,18,0.00,0,,69
2013-5-4,71,48,24,15,9,5,46,27,8,30.01,29.89,29.80,10,10,10,23,6,32,0.00,0,,132
2013-5-5,66,56,45,28,19,9,38,26,14,30.07,29.91,29.83,10,10,10,26,6,43,T,4,Rain,129
2013-5-6,53,48,42,43,39,30,86,64,41,30.10,29.99,29.89,10,9,1,20,7,25,0.32,6,Rain,25
2013-5-7,64,49,34,41,33,24,100,62,23,30.14,29.97,29.85,10,10,4,24,5,32,T,3,Rain,328
2013-5-8,55,45,35,38,33,27,92,64,35,30.11,30.00,29.88,10,10,4,21,7,29,0.12,4,Rain-Thunderstorm,301
2013-5-9,57,45,32,37,34,29,85,62,38,30.17,30.09,30.04,10,10,10,25,5,32,0.01,4,Rain-Thunderstorm,57
2013-5-10,65,48,31,38,33,26,89,58,27,30.25,30.17,30.08,10,10,10,26,6,32,T,3,Rain-Thunderstorm,355
2013-5-11,69,51,33,39,32,24,82,51,19,30.38,30.30,30.24,10,10,8,25,3,36,0.02,2,Rain-Thunderstorm,30
2013-5-12,75,54,32,35,32,29,89,54,19,30.37,30.21,30.08,10,10,10,15,5,23,0.00,1,,288
2013-5-13,79,58,37,36,32,26,67,41,15,30.22,30.11,30.03,10,10,10,17,5,21,0.00,0,,40
2013-5-14,77,59,41,38,35,31,70,45,19,30.14,29.97,29.88,10,10,10,23,7,30,0.00,2,Thunderstorm,28
2013-5-15,80,64,47,40,30,9,66,38,9,29.98,29.83,29.74,10,10,10,25,8,33,0.00,1,,300
2013-5-16,79,57,34,29,23,15,54,33,12,29.91,29.85,29.77,10,10,10,22,7,28,0.00,0,,304
2013-5-17,77,56,34,27,18,8,52,30,7,29.95,29.86,29.80,10,10,10,25,7,33,0.00,0,,277
2013-5-18,71,56,41,31,25,19,53,34,15,29.99,29.86,29.79,10,10,10,28,9,37,0.00,1,,304
2013-5-19,66,55,43,29,25,18,49,34,18,29.97,29.84,29.78,10,10,10,28,11,38,0.00,2,,297
2013-5-20,65,52,38,40,31,26,60,42,24,30.02,29.90,29.80,10,10,10,26,5,32,T,4,Rain-Thunderstorm,275
2013-5-21,72,52,31,34,30,26,92,56,19,30.07,29.93,29.83,10,10,10,23,8,33,0.00,0,,283
2013-5-22,77,56,35,31,24,18,70,41,12,29.87,29.80,29.70,10,10,10,20,6,30,0.00,0,,299
2013-5-23,82,59,36,29,21,14,50,30,9,30.09,29.83,29.75,10,10,10,30,9,49,0.00,0,,237
2013-5-24,79,57,35,25,20,16,48,29,10,30.18,29.94,29.87,10,10,10,22,8,32,0.00,0,,279
2013-5-25,80,58,35,26,21,15,52,31,10,30.03,29.94,29.84,10,10,10,21,6,29,0.00,0,,300
2013-5-26,77,57,36,26,19,13,52,31,10,29.99,29.93,29.84,10,10,10,20,7,26,0.00,0,,303
2013-5-27,74,53,32,23,18,13,56,34,11,29.95,29.86,29.75,10,10,10,18,7,25,0.00,0,,261
2013-5-28,72,52,32,32,21,15,52,32,12,29.80,29.70,29.57,10,10,10,21,7,28,0.00,0,,287
2013-5-29,67,56,45,40,29,13,71,42,12,29.73,29.63,29.59,10,10,10,31,14,39,T,2,Rain,269
2013-5-30,73,58,43,30,24,15,53,33,12,29.91,29.76,29.70,10,10,10,32,11,41,T,1,Rain,296
2013-5-31,73,52,31,27,18,8,56,33,10,29.96,29.88,29.80,10,10,10,32,12,40,0.00,0,,291